createdAt,value
2018-04-29T00:00:45.758Z,16.52
2018-04-29T00:03:13.237Z,16.39
2018-04-29T00:05:40.691Z,16.30
2018-04-29T00:08:08.202Z,16.26
2018-04-29T00:10:35.694Z,16.23
2018-04-29T00:13:03.171Z,16.22
2018-04-29T00:15:30.718Z,16.20
2018-04-29T00:17:58.209Z,16.18
2018-04-29T00:20:25.708Z,16.16
2018-04-29T00:22:53.209Z,16.16
2018-04-29T00:25:20.704Z,16.17
2018-04-29T00:27:48.193Z,16.24
2018-04-29T00:30:15.677Z,16.26
2018-04-29T00:32:43.151Z,16.28
2018-04-29T00:35:10.604Z,16.26
2018-04-29T00:37:38.133Z,16.25
2018-04-29T00:40:05.673Z,16.21
2018-04-29T00:42:33.157Z,16.21
2018-04-29T00:45:00.670Z,16.18
2018-04-29T00:47:28.131Z,16.14
2018-04-29T00:49:55.639Z,16.11
2018-04-29T00:52:23.152Z,16.05
2018-04-29T00:54:50.649Z,15.96
2018-04-29T00:57:18.137Z,15.85
2018-04-29T00:59:45.653Z,15.74
2018-04-29T01:02:13.157Z,15.64
2018-04-29T01:04:40.649Z,15.57
2018-04-29T01:07:08.164Z,15.48
2018-04-29T01:09:35.666Z,15.41
2018-04-29T01:12:03.167Z,15.35
2018-04-29T01:14:30.678Z,15.30
2018-04-29T01:16:58.147Z,15.24
2018-04-29T01:19:25.662Z,15.21
2018-04-29T01:21:53.145Z,15.18
2018-04-29T01:24:20.649Z,15.15
2018-04-29T01:26:48.153Z,15.11
2018-04-29T01:29:15.641Z,15.04
2018-04-29T01:31:43.109Z,14.97
2018-04-29T01:34:10.616Z,14.96
2018-04-29T01:36:38.129Z,14.98
2018-04-29T01:39:05.798Z,15.00
2018-04-29T01:41:33.322Z,15.01
2018-04-29T01:44:00.792Z,15.04
2018-04-29T01:46:28.299Z,15.03
2018-04-29T01:48:55.764Z,15.00
2018-04-29T01:51:23.207Z,15.05
2018-04-29T01:53:50.680Z,15.04
2018-04-29T01:56:18.170Z,15.02
2018-04-29T01:58:45.629Z,15.05
2018-04-29T02:01:13.122Z,15.10
2018-04-29T02:03:40.625Z,15.10
2018-04-29T02:06:08.095Z,15.03
2018-04-29T02:08:35.560Z,14.99
2018-04-29T02:11:03.113Z,14.96
2018-04-29T02:13:30.596Z,14.94
2018-04-29T02:15:58.137Z,14.95
2018-04-29T02:18:25.641Z,14.94
2018-04-29T02:20:53.096Z,14.96
2018-04-29T02:23:20.588Z,14.97
2018-04-29T02:25:48.084Z,14.94
2018-04-29T02:28:15.570Z,14.95
2018-04-29T02:30:43.111Z,14.98
2018-04-29T02:33:10.631Z,14.99
2018-04-29T02:35:38.116Z,15.01
2018-04-29T02:38:05.598Z,15.04
2018-04-29T02:40:33.085Z,14.96
2018-04-29T02:43:00.610Z,14.95
2018-04-29T02:45:28.091Z,14.95
2018-04-29T02:47:55.546Z,14.95
2018-04-29T02:50:23.066Z,14.94
2018-04-29T02:52:50.583Z,14.86
2018-04-29T02:55:18.032Z,14.83
2018-04-29T02:57:45.517Z,14.90
2018-04-29T03:00:12.999Z,14.98
2018-04-29T03:02:40.497Z,15.02
2018-04-29T03:05:07.981Z,15.07
2018-04-29T03:07:35.457Z,15.10
2018-04-29T03:10:02.933Z,15.13
2018-04-29T03:12:30.493Z,15.13
2018-04-29T03:14:58.015Z,15.07
2018-04-29T03:17:25.486Z,15.02
2018-04-29T03:19:53.061Z,14.93
2018-04-29T03:22:20.560Z,14.84
2018-04-29T03:24:48.077Z,14.79
2018-04-29T03:27:15.577Z,14.74
2018-04-29T03:29:43.064Z,14.69
2018-04-29T03:32:10.518Z,14.67
2018-04-29T03:34:38.028Z,14.67
2018-04-29T03:37:05.554Z,14.61
2018-04-29T03:39:33.053Z,14.55
2018-04-29T03:42:00.585Z,14.51
2018-04-29T03:44:28.137Z,14.48
2018-04-29T03:46:55.664Z,14.44
2018-04-29T03:49:23.160Z,14.43
2018-04-29T03:51:50.653Z,14.38
2018-04-29T03:54:18.131Z,14.37
2018-04-29T03:56:45.614Z,14.39
2018-04-29T03:59:24.975Z,14.38
2018-04-29T04:02:04.557Z,14.38
2018-04-29T04:04:32.123Z,14.38
2018-04-29T04:06:59.576Z,14.40
2018-04-29T04:09:27.024Z,14.45
2018-04-29T04:11:54.498Z,14.47
2018-04-29T04:14:21.950Z,14.44
2018-04-29T04:16:49.432Z,14.48
2018-04-29T04:19:16.909Z,14.50
2018-04-29T04:21:44.378Z,14.54
2018-04-29T04:24:11.844Z,14.64
2018-04-29T04:26:39.353Z,14.71
2018-04-29T04:29:06.850Z,14.77
2018-04-29T04:31:34.343Z,14.85
2018-04-29T04:34:01.816Z,14.91
2018-04-29T04:36:29.297Z,14.97
2018-04-29T04:38:56.809Z,14.95
2018-04-29T04:41:24.333Z,14.96
2018-04-29T04:43:51.799Z,15.00
2018-04-29T04:46:19.272Z,15.07
2018-04-29T04:48:46.773Z,15.23
2018-04-29T04:51:14.269Z,15.31
2018-04-29T04:53:41.729Z,15.39
2018-04-29T04:56:09.287Z,15.36
2018-04-29T04:58:36.778Z,15.20
2018-04-29T05:01:04.418Z,15.18
2018-04-29T05:03:31.875Z,15.24
2018-04-29T05:05:59.391Z,15.25
2018-04-29T05:08:26.853Z,15.07
2018-04-29T05:10:54.308Z,15.02
2018-04-29T05:13:21.785Z,14.97
2018-04-29T05:15:49.323Z,15.01
2018-04-29T05:18:16.835Z,15.15
2018-04-29T05:20:44.300Z,15.27
2018-04-29T05:23:11.789Z,15.44
2018-04-29T05:25:39.246Z,15.64
2018-04-29T05:28:06.744Z,15.71
2018-04-29T05:30:34.222Z,15.80
2018-04-29T05:33:01.729Z,15.88
2018-04-29T05:35:29.252Z,15.98
2018-04-29T05:37:56.724Z,16.10
2018-04-29T05:40:24.208Z,16.22
2018-04-29T05:42:51.714Z,16.33
2018-04-29T05:45:19.221Z,16.41
2018-04-29T05:47:46.727Z,16.47
2018-04-29T05:50:14.232Z,16.54
2018-04-29T05:52:41.688Z,16.56
2018-04-29T05:55:09.192Z,16.61
2018-04-29T05:57:36.693Z,16.68
2018-04-29T06:00:04.216Z,16.70
2018-04-29T06:02:31.713Z,16.78
2018-04-29T06:04:59.196Z,16.84
2018-04-29T06:07:26.658Z,16.86
2018-04-29T06:09:54.157Z,16.91
2018-04-29T06:12:22.411Z,16.88
2018-04-29T06:14:49.956Z,16.79
2018-04-29T06:17:17.435Z,16.78
2018-04-29T06:19:44.925Z,16.85
2018-04-29T06:22:12.393Z,16.95
2018-04-29T06:24:39.865Z,17.12
2018-04-29T06:27:07.332Z,17.25
2018-04-29T06:29:34.951Z,17.26
2018-04-29T06:32:02.489Z,17.33
2018-04-29T06:34:29.868Z,17.53
2018-04-29T06:36:57.380Z,17.65
2018-04-29T06:39:24.877Z,17.69
2018-04-29T06:41:52.412Z,17.88
2018-04-29T06:44:19.936Z,17.93
2018-04-29T06:46:47.463Z,18.02
2018-04-29T06:49:14.920Z,18.09
2018-04-29T06:51:42.408Z,18.19
2018-04-29T06:54:09.898Z,18.38
2018-04-29T06:56:37.397Z,18.44
2018-04-29T06:59:04.938Z,18.39
2018-04-29T07:01:32.391Z,18.38
2018-04-29T07:03:59.867Z,18.36
2018-04-29T07:06:27.344Z,18.37
2018-04-29T07:08:54.820Z,18.39
2018-04-29T07:11:22.360Z,18.28
2018-04-29T07:13:49.833Z,18.17
2018-04-29T07:16:17.330Z,18.16
2018-04-29T07:18:44.808Z,18.17
2018-04-29T07:21:12.287Z,18.14
2018-04-29T07:23:39.768Z,18.14
2018-04-29T07:26:07.375Z,18.24
2018-04-29T07:28:34.783Z,18.27
2018-04-29T07:31:02.327Z,18.41
2018-04-29T07:33:29.781Z,18.58
2018-04-29T07:35:57.231Z,18.85
2018-04-29T07:38:24.724Z,19.12
2018-04-29T07:40:52.167Z,19.33
2018-04-29T07:43:19.649Z,19.39
2018-04-29T07:45:47.127Z,19.39
2018-04-29T07:48:14.660Z,19.18
2018-04-29T07:50:42.224Z,19.14
2018-04-29T07:53:09.767Z,19.08
2018-04-29T07:55:37.222Z,18.88
2018-04-29T07:58:04.744Z,18.80
2018-04-29T08:00:32.244Z,18.81
2018-04-29T08:02:59.701Z,18.91
2018-04-29T08:05:27.193Z,19.25
2018-04-29T08:07:54.705Z,19.38
2018-04-29T08:10:22.161Z,19.52
2018-04-29T08:12:49.639Z,19.55
2018-04-29T08:15:17.119Z,19.80
2018-04-29T08:17:44.600Z,20.09
2018-04-29T08:20:12.161Z,20.18
2018-04-29T08:22:39.757Z,20.17
2018-04-29T08:25:07.186Z,20.06
2018-04-29T08:27:34.639Z,19.95
2018-04-29T08:30:02.140Z,19.69
2018-04-29T08:32:29.591Z,19.49
2018-04-29T08:34:57.095Z,19.18
2018-04-29T08:37:24.552Z,19.04
2018-04-29T08:39:52.001Z,18.98
2018-04-29T08:42:19.466Z,19.07
2018-04-29T08:44:46.915Z,19.04
2018-04-29T08:47:14.424Z,19.08
2018-04-29T08:49:41.925Z,19.15
2018-04-29T08:52:09.378Z,19.29
2018-04-29T08:54:36.856Z,19.57
2018-04-29T08:57:04.333Z,19.83
2018-04-29T08:59:31.850Z,19.76
2018-04-29T09:01:59.372Z,19.73
2018-04-29T09:04:26.856Z,19.76
2018-04-29T09:06:54.337Z,19.96
2018-04-29T09:09:21.856Z,20.02
2018-04-29T09:11:49.308Z,19.90
2018-04-29T09:14:16.792Z,19.95
2018-04-29T09:16:44.272Z,20.12
2018-04-29T09:19:11.777Z,20.25
2018-04-29T09:21:39.273Z,20.39
2018-04-29T09:24:06.749Z,20.22
2018-04-29T09:26:34.242Z,20.29
2018-04-29T09:29:01.723Z,20.39
2018-04-29T09:31:29.165Z,20.46
2018-04-29T09:33:56.624Z,20.56
2018-04-29T09:36:24.125Z,20.63
2018-04-29T09:38:51.621Z,20.76
2018-04-29T09:41:19.104Z,20.85
2018-04-29T09:43:46.596Z,20.75
2018-04-29T09:46:14.044Z,20.75
2018-04-29T09:48:41.643Z,20.86
2018-04-29T09:51:09.122Z,20.93
2018-04-29T09:53:36.572Z,21.07
2018-04-29T09:56:04.037Z,21.18
2018-04-29T09:58:31.557Z,20.98
2018-04-29T10:00:59.103Z,20.98
2018-04-29T10:03:26.594Z,21.03
2018-04-29T10:05:54.064Z,21.28
2018-04-29T10:08:21.550Z,21.32
2018-04-29T10:10:49.052Z,21.44
2018-04-29T10:13:16.509Z,21.69
2018-04-29T10:15:43.956Z,21.93
2018-04-29T10:18:11.460Z,22.16
2018-04-29T10:20:38.917Z,22.28
2018-04-29T10:23:06.416Z,22.11
2018-04-29T10:25:33.901Z,21.95
2018-04-29T10:28:01.387Z,22.07
2018-04-29T10:30:28.848Z,22.10
2018-04-29T10:32:56.336Z,21.88
2018-04-29T10:35:23.839Z,21.98
2018-04-29T10:37:51.285Z,22.05
2018-04-29T10:40:18.740Z,22.16
2018-04-29T10:42:46.246Z,22.16
2018-04-29T10:45:13.736Z,22.10
2018-04-29T10:47:41.229Z,22.17
2018-04-29T10:50:08.778Z,22.29
2018-04-29T10:52:36.280Z,22.41
2018-04-29T10:55:03.699Z,22.60
2018-04-29T10:57:31.199Z,22.63
2018-04-29T10:59:58.675Z,22.64
2018-04-29T11:02:26.123Z,22.73
2018-04-29T11:04:53.621Z,22.91
2018-04-29T11:07:21.134Z,22.85
2018-04-29T11:09:48.598Z,22.89
2018-04-29T11:12:16.084Z,22.89
2018-04-29T11:14:43.555Z,22.81
2018-04-29T11:17:11.025Z,22.84
2018-04-29T11:19:38.573Z,22.87
2018-04-29T11:22:06.084Z,23.00
2018-04-29T11:24:33.608Z,23.10
2018-04-29T11:27:01.089Z,22.97
2018-04-29T11:29:28.589Z,23.05
2018-04-29T11:31:56.162Z,23.18
2018-04-29T11:34:23.678Z,23.27
2018-04-29T11:36:51.265Z,23.06
2018-04-29T11:39:18.843Z,23.18
2018-04-29T11:41:46.400Z,23.34
2018-04-29T11:44:13.904Z,23.39
2018-04-29T11:46:41.366Z,23.54
2018-04-29T11:49:08.827Z,23.46
2018-04-29T11:51:36.293Z,23.55
2018-04-29T11:54:03.811Z,23.56
2018-04-29T11:56:31.293Z,23.44
2018-04-29T11:58:58.777Z,23.50
2018-04-29T12:01:26.239Z,23.54
2018-04-29T12:03:53.722Z,23.61
2018-04-29T12:06:21.229Z,23.52
2018-04-29T12:08:48.681Z,23.53
2018-04-29T12:11:16.185Z,23.67
2018-04-29T12:13:43.706Z,23.90
2018-04-29T12:16:11.171Z,23.99
2018-04-29T12:18:38.670Z,23.95
2018-04-29T12:21:06.127Z,24.06
2018-04-29T12:23:33.627Z,24.16
2018-04-29T12:26:01.207Z,24.04
2018-04-29T12:28:28.785Z,24.07
2018-04-29T12:30:56.306Z,24.18
2018-04-29T12:33:23.799Z,24.11
2018-04-29T12:35:51.252Z,24.09
2018-04-29T12:38:18.799Z,23.93
2018-04-29T12:40:46.199Z,23.85
2018-04-29T12:43:13.950Z,23.93
2018-04-29T12:45:41.533Z,23.94
2018-04-29T12:48:09.162Z,24.01
2018-04-29T12:50:36.612Z,24.02
2018-04-29T12:53:04.113Z,23.88
2018-04-29T12:55:31.653Z,24.02
2018-04-29T12:57:59.280Z,24.17
2018-04-29T13:00:26.762Z,24.44
2018-04-29T13:02:54.261Z,24.64
2018-04-29T13:05:21.792Z,24.70
2018-04-29T13:07:49.467Z,24.69
2018-04-29T13:10:16.957Z,24.60
2018-04-29T13:12:44.407Z,24.45
2018-04-29T13:15:11.876Z,24.44
2018-04-29T13:17:39.327Z,24.31
2018-04-29T13:20:06.804Z,24.35
2018-04-29T13:22:34.285Z,24.42
2018-04-29T13:25:01.743Z,24.50
2018-04-29T13:27:29.231Z,24.64
2018-04-29T13:29:56.734Z,24.73
2018-04-29T13:32:24.214Z,24.69
2018-04-29T13:34:51.663Z,24.81
2018-04-29T13:37:19.140Z,24.93
2018-04-29T13:39:46.598Z,25.05
2018-04-29T13:42:14.092Z,25.06
2018-04-29T13:44:41.580Z,25.05
2018-04-29T13:47:09.065Z,24.88
2018-04-29T13:49:36.549Z,24.81
2018-04-29T13:52:04.051Z,24.77
2018-04-29T13:54:31.626Z,24.64
2018-04-29T13:56:59.108Z,24.68
2018-04-29T13:59:26.560Z,24.72
2018-04-29T14:01:54.162Z,24.63
2018-04-29T14:04:21.615Z,24.62
2018-04-29T14:06:49.104Z,24.79
2018-04-29T14:09:16.578Z,25.00
2018-04-29T14:11:44.051Z,24.91
2018-04-29T14:14:11.616Z,24.80
2018-04-29T14:16:39.105Z,24.66
2018-04-29T14:19:06.567Z,24.65
2018-04-29T14:21:34.073Z,24.73
2018-04-29T14:24:01.524Z,24.79
2018-04-29T14:26:29.103Z,24.71
2018-04-29T14:28:56.617Z,24.83
2018-04-29T14:31:24.135Z,24.92
2018-04-29T14:33:51.600Z,24.78
2018-04-29T14:36:19.071Z,24.81
2018-04-29T14:38:46.751Z,25.02
2018-04-29T14:41:14.230Z,25.14
2018-04-29T14:43:41.727Z,25.04
2018-04-29T14:46:09.192Z,25.08
2018-04-29T14:48:36.911Z,25.09
2018-04-29T14:51:04.399Z,25.13
2018-04-29T14:53:31.886Z,25.28
2018-04-29T14:55:59.353Z,25.34
2018-04-29T14:58:26.806Z,25.21
2018-04-29T15:00:54.327Z,25.25
2018-04-29T15:03:21.836Z,25.13
2018-04-29T15:05:49.324Z,25.09
2018-04-29T15:08:16.782Z,25.03
2018-04-29T15:10:44.259Z,25.00
2018-04-29T15:13:11.721Z,24.97
2018-04-29T15:15:39.171Z,24.96
2018-04-29T15:18:06.780Z,25.86
2018-04-29T15:20:34.265Z,26.99
2018-04-29T15:23:01.760Z,28.02
2018-04-29T15:25:29.268Z,29.08
2018-04-29T15:27:56.766Z,28.89
2018-04-29T15:30:24.257Z,29.28
2018-04-29T15:32:51.779Z,29.68
2018-04-29T15:35:19.617Z,29.62
2018-04-29T15:37:47.115Z,29.26
2018-04-29T15:40:14.669Z,29.59
2018-04-29T15:42:42.204Z,29.56
2018-04-29T15:45:09.670Z,29.79
2018-04-29T15:47:37.119Z,29.44
2018-04-29T15:50:04.634Z,29.27
2018-04-29T15:52:32.116Z,29.29
2018-04-29T15:54:59.571Z,29.02
2018-04-29T15:57:27.084Z,29.07
2018-04-29T15:59:54.566Z,29.58
2018-04-29T16:02:22.867Z,29.79
2018-04-29T16:04:50.372Z,29.32
2018-04-29T16:07:17.880Z,28.74
2018-04-29T16:09:45.376Z,28.31
2018-04-29T16:12:12.856Z,27.78
2018-04-29T16:14:40.327Z,27.18
2018-04-29T16:19:41.660Z,26.18
2018-04-29T16:22:09.174Z,25.27
2018-04-29T16:24:36.757Z,24.75
2018-04-29T16:27:04.286Z,24.47
2018-04-29T16:29:31.740Z,24.20
2018-04-29T16:31:59.192Z,24.19
2018-04-29T16:34:26.706Z,24.16
2018-04-29T16:36:54.161Z,24.16
2018-04-29T16:39:21.652Z,24.13
2018-04-29T16:41:49.150Z,24.07
2018-04-29T16:44:16.611Z,24.02
2018-04-29T16:46:44.101Z,24.02
2018-04-29T16:49:11.549Z,23.91
2018-04-29T16:51:39.029Z,23.80
2018-04-29T16:54:06.547Z,23.70
2018-04-29T16:56:34.012Z,23.62
2018-04-29T16:59:01.453Z,23.55
2018-04-29T17:01:28.915Z,23.54
2018-04-29T17:03:56.411Z,23.50
2018-04-29T17:06:23.876Z,23.47
2018-04-29T17:08:51.367Z,23.44
2018-04-29T17:11:18.857Z,23.38
2018-04-29T17:13:46.407Z,23.33
2018-04-29T17:16:13.911Z,23.27
2018-04-29T17:18:41.421Z,23.27
2018-04-29T17:21:08.905Z,23.24
2018-04-29T17:23:36.437Z,23.19
2018-04-29T17:26:03.904Z,23.14
2018-04-29T17:28:31.385Z,23.09
2018-04-29T17:30:58.845Z,23.05
2018-04-29T17:33:26.321Z,23.01
2018-04-29T17:35:53.759Z,22.93
2018-04-29T17:38:21.237Z,22.88
2018-04-29T17:40:48.702Z,22.82
2018-04-29T17:43:16.175Z,22.73
2018-04-29T17:45:43.661Z,22.68
2018-04-29T17:48:11.175Z,22.61
2018-04-29T17:50:38.648Z,22.55
2018-04-29T17:53:06.164Z,22.46
2018-04-29T17:55:33.672Z,22.37
2018-04-29T17:58:01.162Z,22.30
2018-04-29T18:00:28.673Z,22.22
2018-04-29T18:02:56.167Z,22.17
2018-04-29T18:05:23.640Z,22.12
2018-04-29T18:07:51.123Z,22.05
2018-04-29T18:10:18.616Z,21.98
2018-04-29T18:12:46.192Z,21.90
2018-04-29T18:15:13.672Z,21.88
2018-04-29T18:17:41.153Z,21.85
2018-04-29T18:20:08.633Z,21.80
2018-04-29T18:22:36.084Z,21.73
2018-04-29T18:25:03.545Z,21.66
2018-04-29T18:27:30.993Z,21.60
2018-04-29T18:29:58.483Z,21.54
2018-04-29T18:32:25.973Z,21.46
2018-04-29T18:34:53.481Z,21.41
2018-04-29T18:37:20.978Z,21.37
2018-04-29T18:39:48.475Z,21.35
2018-04-29T18:42:15.969Z,21.28
2018-04-29T18:44:43.488Z,21.22
2018-04-29T18:47:11.005Z,21.15
2018-04-29T18:49:38.547Z,21.08
2018-04-29T18:52:06.271Z,21.01
2018-04-29T18:54:33.932Z,20.94
2018-04-29T18:57:02.660Z,20.88
2018-04-29T18:59:30.318Z,20.83
2018-04-29T19:01:57.989Z,20.78
2018-04-29T19:04:25.610Z,20.75
2018-04-29T19:06:53.177Z,20.70
2018-04-29T19:09:20.746Z,20.66
2018-04-29T19:11:48.195Z,20.60
2018-04-29T19:14:15.753Z,20.55
2018-04-29T19:16:43.240Z,20.51
2018-04-29T19:19:10.735Z,20.45
2018-04-29T19:21:38.291Z,20.39
2018-04-29T19:24:05.821Z,20.33
2018-04-29T19:26:33.226Z,20.30
2018-04-29T19:29:00.678Z,20.26
2018-04-29T19:31:28.247Z,20.22
2018-04-29T19:33:55.697Z,20.18
2018-04-29T19:36:23.230Z,20.12
2018-04-29T19:38:50.671Z,20.07
2018-04-29T19:41:18.158Z,20.03
2018-04-29T19:43:45.675Z,19.99
2018-04-29T19:46:13.232Z,19.95
2018-04-29T19:48:40.708Z,19.91
2018-04-29T19:51:08.229Z,19.88
2018-04-29T19:53:35.688Z,19.84
2018-04-29T19:56:03.149Z,19.81
2018-04-29T19:58:30.680Z,19.75
2018-04-29T20:00:58.150Z,19.71
2018-04-29T20:03:25.655Z,19.66
2018-04-29T20:05:53.100Z,19.61
2018-04-29T20:08:20.543Z,19.60
2018-04-29T20:10:47.988Z,19.55
2018-04-29T20:13:15.444Z,19.53
2018-04-29T20:15:42.892Z,19.46
2018-04-29T20:18:10.434Z,19.42
2018-04-29T20:20:37.901Z,19.34
2018-04-29T20:23:05.381Z,19.27
2018-04-29T20:25:32.914Z,19.22
2018-04-29T20:28:01.184Z,19.16
2018-04-29T20:30:28.656Z,19.09
2018-04-29T20:32:56.123Z,19.02
2018-04-29T20:35:23.733Z,18.96
2018-04-29T20:37:51.243Z,18.92
2018-04-29T20:40:18.692Z,18.86
2018-04-29T20:42:46.161Z,18.83
2018-04-29T20:45:13.616Z,18.79
2018-04-29T20:47:41.098Z,18.74
2018-04-29T20:50:08.544Z,18.71
2018-04-29T20:52:35.995Z,18.69
2018-04-29T20:55:03.452Z,18.65
2018-04-29T20:57:30.955Z,18.60
2018-04-29T20:59:58.437Z,18.56
2018-04-29T21:02:25.869Z,18.53
2018-04-29T21:04:53.331Z,18.49
2018-04-29T21:07:20.911Z,18.46
2018-04-29T21:09:48.412Z,18.44
2018-04-29T21:12:15.875Z,18.41
2018-04-29T21:14:43.390Z,18.35
2018-04-29T21:17:10.845Z,18.31
2018-04-29T21:19:38.324Z,18.27
2018-04-29T21:22:05.794Z,18.23
2018-04-29T21:24:33.268Z,18.20
2018-04-29T21:27:00.766Z,18.17
2018-04-29T21:29:28.272Z,18.12
2018-04-29T21:31:55.720Z,18.08
2018-04-29T21:34:23.213Z,18.03
2018-04-29T21:36:50.691Z,18.03
2018-04-29T21:39:18.179Z,18.01
2018-04-29T21:41:45.688Z,17.98
2018-04-29T21:44:13.180Z,17.95
2018-04-29T21:46:40.628Z,17.91
2018-04-29T21:49:08.258Z,17.90
2018-04-29T21:51:35.748Z,17.87
2018-04-29T21:54:03.183Z,17.81
2018-04-29T21:56:30.683Z,17.79
2018-04-29T21:58:58.183Z,17.78
2018-04-29T22:01:25.657Z,17.75
2018-04-29T22:03:53.184Z,17.73
2018-04-29T22:06:20.634Z,17.68
2018-04-29T22:08:48.080Z,17.66
2018-04-29T22:11:15.689Z,17.66
2018-04-29T22:13:43.169Z,17.65
2018-04-29T22:16:10.709Z,17.61
2018-04-29T22:18:38.175Z,17.56
2018-04-29T22:21:05.649Z,17.54
2018-04-29T22:23:33.136Z,17.49
2018-04-29T22:26:00.615Z,17.48
2018-04-29T22:28:28.096Z,17.49
2018-04-29T22:30:55.572Z,17.47
2018-04-29T22:33:23.024Z,17.43
2018-04-29T22:35:50.489Z,17.42
2018-04-29T22:38:17.960Z,17.39
2018-04-29T22:40:45.408Z,17.37
2018-04-29T22:43:12.883Z,17.37
2018-04-29T22:45:40.378Z,17.36
2018-04-29T22:48:07.870Z,17.30
2018-04-29T22:50:35.358Z,17.27
2018-04-29T22:53:02.870Z,17.23
2018-04-29T22:55:30.327Z,17.21
2018-04-29T22:57:57.852Z,17.20
2018-04-29T23:00:25.364Z,17.16
2018-04-29T23:02:52.808Z,17.14
2018-04-29T23:05:20.289Z,17.11
2018-04-29T23:07:47.781Z,17.09
2018-04-29T23:10:15.239Z,17.09
2018-04-29T23:12:42.729Z,17.06
2018-04-29T23:15:10.301Z,17.01
2018-04-29T23:17:37.822Z,17.00
2018-04-29T23:20:05.268Z,16.95
2018-04-29T23:22:32.704Z,16.95
2018-04-29T23:25:00.244Z,16.91
2018-04-29T23:27:27.717Z,16.87
2018-04-29T23:29:55.189Z,16.84
2018-04-29T23:32:22.677Z,16.83
2018-04-29T23:34:50.177Z,16.79
2018-04-29T23:37:17.706Z,16.76
2018-04-29T23:39:45.154Z,16.75
2018-04-29T23:42:12.603Z,16.72
2018-04-29T23:44:40.185Z,16.71
2018-04-29T23:47:07.702Z,16.70
2018-04-29T23:49:35.314Z,16.70
2018-04-29T23:52:02.771Z,16.69
2018-04-29T23:54:30.423Z,16.67
2018-04-29T23:56:57.882Z,16.67
2018-04-29T23:59:25.383Z,16.66
